createdAt,value
2022-08-20T00:04:29.186Z,26.70
2022-08-20T00:09:14.181Z,26.60
2022-08-20T00:13:59.749Z,26.60
2022-08-20T00:18:44.108Z,26.80
2022-08-20T00:23:27.647Z,25.40
2022-08-20T00:28:13.279Z,28.30
2022-08-20T00:32:59.502Z,27.80
2022-08-20T00:37:43.356Z,29.13
2022-08-20T00:42:27.009Z,28.50
2022-08-20T00:47:12.051Z,27.37
2022-08-20T00:52:02.260Z,28.70
2022-08-20T00:56:48.374Z,29.20
2022-08-20T01:01:34.604Z,28.47
2022-08-20T01:06:40.318Z,29.33
2022-08-20T01:11:36.962Z,30.20
2022-08-20T01:16:29.163Z,29.23
2022-08-20T01:21:12.724Z,32.87
2022-08-20T01:26:02.913Z,31.00
2022-08-20T01:30:47.080Z,34.00
2022-08-20T01:35:31.217Z,30.40
2022-08-20T01:40:22.355Z,34.07
2022-08-20T01:45:08.093Z,33.30
2022-08-20T01:49:54.686Z,32.93
2022-08-20T01:54:38.736Z,33.73
2022-08-20T01:59:23.040Z,34.57
2022-08-20T02:04:15.407Z,34.00
2022-08-20T02:09:01.627Z,34.27
2022-08-20T02:13:49.811Z,32.57
2022-08-20T02:18:33.938Z,34.70
2022-08-20T02:23:19.161Z,34.77
2022-08-20T02:28:05.211Z,35.40
2022-08-20T02:32:49.762Z,37.67
2022-08-20T02:37:39.357Z,35.87
2022-08-20T02:42:24.644Z,35.90
2022-08-20T02:47:09.070Z,33.47
2022-08-20T02:51:52.903Z,35.80
2022-08-20T02:56:36.807Z,33.87
2022-08-20T03:01:22.964Z,32.67
2022-08-20T03:06:08.474Z,30.57
2022-08-20T03:10:53.054Z,29.10
2022-08-20T03:15:36.801Z,28.63
2022-08-20T03:20:23.889Z,25.40
2022-08-20T03:25:09.312Z,24.87
2022-08-20T03:29:54.204Z,22.77
2022-08-20T03:34:37.947Z,23.17
2022-08-20T03:39:23.035Z,21.17
2022-08-20T03:44:07.316Z,19.33
2022-08-20T03:48:56.638Z,17.53
2022-08-20T03:53:44.105Z,17.03
2022-08-20T03:58:30.087Z,15.20
2022-08-20T04:03:20.013Z,14.50
2022-08-20T04:08:07.031Z,15.07
2022-08-20T04:12:53.216Z,12.30
2022-08-20T04:17:38.528Z,13.87
2022-08-20T04:22:22.747Z,12.77
2022-08-20T04:27:08.284Z,10.30
2022-08-20T04:31:52.277Z,9.57
2022-08-20T04:36:37.324Z,9.23
2022-08-20T04:41:23.648Z,8.80
2022-08-20T04:46:10.444Z,7.37
2022-08-20T04:50:54.781Z,6.23
2022-08-20T04:55:42.649Z,7.93
2022-08-20T05:00:26.363Z,8.10
2022-08-20T05:05:10.890Z,11.17
2022-08-20T05:09:54.351Z,12.93
2022-08-20T05:14:39.440Z,13.67
2022-08-20T05:19:23.084Z,15.27
2022-08-20T05:24:07.562Z,14.40
2022-08-20T05:28:57.670Z,14.63
2022-08-20T05:33:43.277Z,15.60
2022-08-20T05:38:29.243Z,15.23
2022-08-20T05:43:13.533Z,16.20
2022-08-20T05:47:57.366Z,17.23
2022-08-20T05:52:43.114Z,17.63
2022-08-20T05:57:28.752Z,18.17
2022-08-20T06:07:52.151Z,18.40
2022-08-20T06:12:39.294Z,18.83
2022-08-20T06:17:23.055Z,20.60
2022-08-20T06:22:17.915Z,24.77
2022-08-20T06:27:07.400Z,26.20
2022-08-20T06:31:50.979Z,27.17
2022-08-20T06:36:35.653Z,25.23
2022-08-20T06:41:19.516Z,28.23
2022-08-20T06:46:04.883Z,26.93
2022-08-20T06:50:49.007Z,28.80
2022-08-20T06:55:33.033Z,29.60
2022-08-20T07:00:20.782Z,30.23
2022-08-20T07:05:06.763Z,31.87
2022-08-20T07:09:59.759Z,30.40
2022-08-20T07:14:43.481Z,29.97
2022-08-20T07:19:26.963Z,28.77
2022-08-20T07:24:12.606Z,29.30
2022-08-20T07:28:56.923Z,28.43
2022-08-20T07:33:41.382Z,26.70
2022-08-20T07:38:26.680Z,29.07
2022-08-20T07:43:11.873Z,29.70
2022-08-20T07:47:56.290Z,28.77
2022-08-20T07:52:39.861Z,33.30
2022-08-20T07:57:23.499Z,32.50
2022-08-20T08:02:08.709Z,33.87
2022-08-20T08:06:55.688Z,34.67
2022-08-20T08:11:46.368Z,33.17
2022-08-20T08:16:32.727Z,34.33
2022-08-20T08:21:18.640Z,33.90
2022-08-20T08:26:02.581Z,34.97
2022-08-20T08:30:49.677Z,36.03
2022-08-20T08:35:34.284Z,34.63
2022-08-20T08:40:19.843Z,35.13
2022-08-20T08:45:05.363Z,30.90
2022-08-20T08:49:50.345Z,33.37
2022-08-20T08:54:35.970Z,31.20
2022-08-20T08:59:22.468Z,29.13
2022-08-20T09:04:06.217Z,30.17
2022-08-20T09:08:52.627Z,29.47
2022-08-20T09:13:39.218Z,31.33
2022-08-20T09:18:24.382Z,30.73
2022-08-20T09:23:08.472Z,30.20
2022-08-20T09:27:52.214Z,31.83
2022-08-20T09:32:35.673Z,30.53
2022-08-20T09:37:20.948Z,29.80
2022-08-20T09:42:11.270Z,30.47
2022-08-20T09:46:55.030Z,31.80
2022-08-20T09:51:38.893Z,31.37
2022-08-20T09:56:24.091Z,30.50
2022-08-20T10:01:14.340Z,31.53
2022-08-20T10:05:58.266Z,30.37
2022-08-20T10:10:42.248Z,31.70
2022-08-20T10:15:27.651Z,29.83
2022-08-20T10:20:14.822Z,30.10
2022-08-20T10:24:58.873Z,31.97
2022-08-20T10:29:46.765Z,33.03
2022-08-20T10:34:32.033Z,30.33
2022-08-20T10:39:15.853Z,34.60
2022-08-20T10:43:59.634Z,35.60
2022-08-20T10:48:43.320Z,33.57
2022-08-20T10:53:29.025Z,34.03
2022-08-20T10:58:13.424Z,32.77
2022-08-20T11:02:57.186Z,33.23
2022-08-20T11:07:49.808Z,33.83
2022-08-20T11:12:46.312Z,33.70
2022-08-20T11:17:33.036Z,32.97
2022-08-20T11:22:21.689Z,33.23
2022-08-20T11:27:07.791Z,32.93
2022-08-20T11:31:53.056Z,31.17
2022-08-20T11:36:38.223Z,30.53
2022-08-20T11:41:21.963Z,31.77
2022-08-20T11:46:05.640Z,30.50
2022-08-20T11:50:51.579Z,31.03
2022-08-20T11:55:35.110Z,30.17
2022-08-20T12:00:31.705Z,30.00
2022-08-20T12:05:17.140Z,29.13
2022-08-20T12:10:02.096Z,29.97
2022-08-20T12:14:46.283Z,27.23
2022-08-20T12:19:30.833Z,28.20
2022-08-20T12:24:14.382Z,29.60
2022-08-20T12:28:59.375Z,29.23
2022-08-20T12:33:43.035Z,29.27
2022-08-20T12:38:26.787Z,28.83
2022-08-20T12:43:10.463Z,31.00
2022-08-20T12:48:02.661Z,30.10
2022-08-20T12:52:46.755Z,31.60
2022-08-20T12:57:34.187Z,30.37
2022-08-20T13:02:19.149Z,33.30
2022-08-20T13:07:05.153Z,32.83
2022-08-20T13:11:52.993Z,32.20
2022-08-20T13:16:36.690Z,30.47
2022-08-20T13:21:23.878Z,32.70
2022-08-20T13:26:09.365Z,31.67
2022-08-20T13:30:52.919Z,32.03
2022-08-20T13:35:36.815Z,31.70
2022-08-20T13:40:20.715Z,28.33
2022-08-20T13:45:07.253Z,29.00
2022-08-20T13:49:56.881Z,30.77
2022-08-20T13:54:41.573Z,29.73
2022-08-20T13:59:26.358Z,27.00
2022-08-20T14:04:11.355Z,28.10
2022-08-20T14:08:55.112Z,27.00
2022-08-20T14:13:39.071Z,25.77
2022-08-20T14:18:22.704Z,25.30
2022-08-20T14:23:08.201Z,24.60
2022-08-20T14:27:53.943Z,27.03
2022-08-20T14:32:37.831Z,24.90
2022-08-20T14:37:23.548Z,24.07
2022-08-20T14:42:09.370Z,24.23
2022-08-20T14:46:53.213Z,22.90
2022-08-20T14:51:38.892Z,21.93
2022-08-20T14:56:22.882Z,22.00
2022-08-20T15:01:08.405Z,21.70
2022-08-20T15:06:32.365Z,22.37
2022-08-20T15:11:16.957Z,21.77
2022-08-20T15:16:00.913Z,20.60
2022-08-20T15:20:46.229Z,22.47
2022-08-20T15:25:36.743Z,21.37
2022-08-20T15:30:23.920Z,24.23
2022-08-20T15:35:13.154Z,22.30
2022-08-20T15:39:58.855Z,22.67
2022-08-20T15:44:44.001Z,24.10
2022-08-20T15:49:31.079Z,23.93
2022-08-20T15:54:19.510Z,23.93
2022-08-20T15:59:19.972Z,26.03
2022-08-20T16:04:23.541Z,17.87
2022-08-20T16:09:30.392Z,18.07
2022-08-20T16:14:19.369Z,19.23
2022-08-20T16:19:03.430Z,20.30
2022-08-20T16:23:47.630Z,22.50
2022-08-20T16:28:40.229Z,22.00
2022-08-20T16:33:40.218Z,26.37
2022-08-20T16:38:37.265Z,27.93
2022-08-20T16:43:26.533Z,28.53
2022-08-20T16:48:11.642Z,29.33
2022-08-20T16:52:57.020Z,28.50
2022-08-20T16:57:41.263Z,29.60
2022-08-20T17:02:25.979Z,29.67
2022-08-20T17:07:14.937Z,35.67
2022-08-20T17:12:17.853Z,30.63
2022-08-20T17:17:04.953Z,29.47
2022-08-20T17:21:50.252Z,29.93
2022-08-20T17:26:38.360Z,28.47
2022-08-20T17:31:38.814Z,28.23
2022-08-20T17:36:26.232Z,25.77
2022-08-20T17:41:17.345Z,25.40
2022-08-20T17:46:05.546Z,26.37
2022-08-20T17:50:57.627Z,25.13
2022-08-20T17:55:43.202Z,22.27
2022-08-20T18:00:28.909Z,21.33
2022-08-20T18:05:19.239Z,24.20
2022-08-20T18:10:11.023Z,24.20
2022-08-20T18:15:02.669Z,22.20
2022-08-20T18:20:14.164Z,25.23
2022-08-20T18:25:03.760Z,23.90
2022-08-20T18:29:59.642Z,27.20
2022-08-20T18:34:44.806Z,26.70
2022-08-20T18:39:30.785Z,27.37
2022-08-20T18:44:27.423Z,26.30
2022-08-20T18:49:14.263Z,23.83
2022-08-20T18:53:57.798Z,26.20
2022-08-20T18:58:53.330Z,28.47
2022-08-20T19:03:43.032Z,27.03
2022-08-20T19:08:38.733Z,28.83
2022-08-20T19:13:52.103Z,26.90
2022-08-20T19:18:43.819Z,29.47
2022-08-20T19:23:33.248Z,28.87
2022-08-20T19:28:22.812Z,29.03
2022-08-20T19:33:15.090Z,28.70
2022-08-20T19:37:59.540Z,27.73
2022-08-20T19:42:45.270Z,26.53
2022-08-20T19:47:33.347Z,29.00
2022-08-20T19:52:36.771Z,32.73
2022-08-20T19:57:22.009Z,32.93
2022-08-20T20:02:20.490Z,28.80
2022-08-20T20:07:09.507Z,31.43
2022-08-20T20:11:56.205Z,29.43
2022-08-20T20:16:41.621Z,28.47
2022-08-20T20:21:37.618Z,31.43
2022-08-20T20:26:21.561Z,28.73
2022-08-20T20:31:10.407Z,31.63
2022-08-20T20:36:05.450Z,34.40
2022-08-20T20:40:53.733Z,33.40
2022-08-20T20:45:40.929Z,33.97
2022-08-20T20:50:32.578Z,33.83
2022-08-20T20:55:24.625Z,34.07
2022-08-20T21:00:13.388Z,34.17
2022-08-20T21:04:58.469Z,34.20
2022-08-20T21:09:43.599Z,33.53
2022-08-20T21:14:27.607Z,34.60
2022-08-20T21:19:13.501Z,35.90
2022-08-20T21:23:57.117Z,34.53
2022-08-20T21:28:40.786Z,33.77
2022-08-20T21:33:24.361Z,33.90
2022-08-20T21:38:10.161Z,34.33
2022-08-20T21:42:57.596Z,32.83
2022-08-20T21:47:42.474Z,32.93
2022-08-20T21:52:27.775Z,31.23
2022-08-20T21:57:17.846Z,33.70
2022-08-20T22:02:01.814Z,31.60
2022-08-20T22:06:45.879Z,32.87
2022-08-20T22:11:29.935Z,32.30
2022-08-20T22:16:18.922Z,30.00
2022-08-20T22:21:02.827Z,32.17
2022-08-20T22:25:46.320Z,32.37
2022-08-20T22:30:30.533Z,32.07
2022-08-20T22:35:15.640Z,33.23
2022-08-20T22:39:59.654Z,33.63
2022-08-20T22:44:43.328Z,32.53
2022-08-20T22:49:31.765Z,32.97
2022-08-20T22:54:22.366Z,32.27
2022-08-20T22:59:06.773Z,31.53
2022-08-20T23:03:50.256Z,33.47
2022-08-20T23:08:34.265Z,33.53
2022-08-20T23:13:19.493Z,33.87
2022-08-20T23:18:05.568Z,32.87
2022-08-20T23:22:50.279Z,32.37
2022-08-20T23:27:43.544Z,34.30
2022-08-20T23:32:28.600Z,33.20
2022-08-20T23:37:14.132Z,33.23
2022-08-20T23:41:59.008Z,34.17
2022-08-20T23:46:46.302Z,33.73
2022-08-20T23:51:31.414Z,33.20
2022-08-20T23:56:15.101Z,32.87
